createdAt,value
2019-01-08T00:01:12.956Z,7.40
2019-01-08T00:03:41.982Z,7.60
2019-01-08T00:06:10.974Z,7.50
2019-01-08T00:08:39.939Z,7.60
2019-01-08T00:11:08.915Z,7.30
2019-01-08T00:13:37.882Z,7.20
2019-01-08T00:16:06.879Z,6.80
2019-01-08T00:18:35.846Z,7.20
2019-01-08T00:21:04.831Z,7.40
2019-01-08T00:23:33.799Z,7.50
2019-01-08T00:26:02.778Z,7.20
2019-01-08T00:28:31.741Z,7.10
2019-01-08T00:31:00.737Z,7.30
2019-01-08T00:33:29.707Z,7.50
2019-01-08T00:35:58.683Z,7.40
2019-01-08T00:38:27.660Z,7.50
2019-01-08T00:40:56.630Z,7.20
2019-01-08T00:43:25.602Z,7.30
2019-01-08T00:45:54.573Z,7.20
2019-01-08T00:48:23.537Z,7.30
2019-01-08T00:50:52.515Z,7.30
2019-01-08T00:53:21.480Z,7.30
2019-01-08T00:55:50.469Z,7.50
2019-01-08T00:58:19.435Z,7.30
2019-01-08T01:00:48.435Z,7.20
2019-01-08T01:03:17.462Z,7.20
2019-01-08T01:05:46.513Z,7.70
2019-01-08T01:08:15.466Z,7.40
2019-01-08T01:10:44.437Z,7.40
2019-01-08T01:13:13.418Z,7.60
2019-01-08T01:15:43.294Z,7.50
2019-01-08T01:18:12.295Z,7.60
2019-01-08T01:20:41.257Z,7.70
2019-01-08T01:23:10.239Z,7.80
2019-01-08T01:25:39.207Z,7.80
2019-01-08T01:28:08.186Z,7.70
2019-01-08T01:30:37.152Z,7.80
2019-01-08T01:33:06.122Z,7.80
2019-01-08T01:35:35.107Z,7.80
2019-01-08T01:38:04.070Z,7.70
2019-01-08T01:40:33.032Z,7.70
2019-01-08T01:43:02.005Z,7.60
2019-01-08T01:45:30.954Z,7.70
2019-01-08T01:47:59.938Z,8.00
2019-01-08T01:50:28.947Z,8.10
2019-01-08T01:52:57.957Z,7.70
2019-01-08T01:55:26.917Z,8.00
2019-01-08T01:57:55.969Z,7.50
2019-01-08T02:00:25.398Z,7.80
2019-01-08T02:02:54.377Z,7.90
2019-01-08T02:05:23.353Z,7.70
2019-01-08T02:07:52.382Z,7.90
2019-01-08T02:10:21.374Z,8.00
2019-01-08T02:12:50.443Z,8.00
2019-01-08T02:15:19.562Z,7.60
2019-01-08T02:17:48.576Z,7.80
2019-01-08T02:20:17.527Z,7.60
2019-01-08T02:22:46.512Z,7.70
2019-01-08T02:25:15.502Z,7.80
2019-01-08T02:27:44.462Z,8.00
2019-01-08T02:30:13.496Z,7.50
2019-01-08T02:32:42.451Z,7.80
2019-01-08T02:35:11.427Z,7.80
2019-01-08T02:37:40.386Z,7.60
2019-01-08T02:40:09.496Z,7.80
2019-01-08T02:42:38.466Z,8.10
2019-01-08T02:45:07.582Z,8.00
2019-01-08T02:47:36.538Z,7.80
2019-01-08T02:50:05.652Z,7.80
2019-01-08T02:52:34.614Z,8.00
2019-01-08T02:55:03.659Z,7.80
2019-01-08T02:57:32.614Z,7.80
2019-01-08T03:00:01.583Z,7.70
2019-01-08T03:02:30.559Z,8.00
2019-01-08T03:04:59.526Z,8.00
2019-01-08T03:07:28.494Z,7.90
2019-01-08T03:09:57.451Z,8.00
2019-01-08T03:12:26.443Z,7.80
2019-01-08T03:14:55.394Z,7.90
2019-01-08T03:17:24.374Z,8.20
2019-01-08T03:19:53.339Z,8.20
2019-01-08T03:22:22.315Z,8.50
2019-01-08T03:24:51.278Z,8.50
2019-01-08T03:27:20.247Z,8.40
2019-01-08T03:29:49.210Z,8.40
2019-01-08T03:32:18.189Z,8.70
2019-01-08T03:34:47.167Z,8.60
2019-01-08T03:37:16.159Z,8.60
2019-01-08T03:39:45.107Z,8.70
2019-01-08T03:42:14.091Z,8.60
2019-01-08T03:44:43.045Z,8.70
2019-01-08T03:47:12.025Z,8.60
2019-01-08T03:49:40.988Z,8.80
2019-01-08T03:52:09.966Z,8.80
2019-01-08T03:54:38.996Z,8.70
2019-01-08T03:57:07.986Z,8.70
2019-01-08T03:59:41.840Z,8.80
2019-01-08T04:02:07.632Z,8.70
2019-01-08T04:04:36.594Z,8.80
2019-01-08T04:07:05.581Z,8.60
2019-01-08T04:09:34.539Z,8.90
2019-01-08T04:12:03.508Z,8.80
2019-01-08T04:14:32.466Z,8.80
2019-01-08T04:17:01.434Z,8.70
2019-01-08T04:19:30.405Z,8.90
2019-01-08T04:21:59.382Z,8.60
2019-01-08T04:24:28.351Z,8.70
2019-01-08T04:26:57.325Z,8.90
2019-01-08T04:29:26.291Z,8.80
2019-01-08T04:31:55.279Z,8.90
2019-01-08T04:34:24.241Z,8.80
2019-01-08T04:36:53.219Z,8.90
2019-01-08T04:39:22.191Z,8.80
2019-01-08T04:41:51.163Z,8.90
2019-01-08T04:44:20.140Z,9.00
2019-01-08T04:46:49.105Z,8.90
2019-01-08T04:49:18.070Z,9.00
2019-01-08T04:51:47.042Z,9.10
2019-01-08T04:54:16.003Z,8.80
2019-01-08T04:56:44.984Z,9.00
2019-01-08T04:59:13.942Z,8.90
2019-01-08T05:01:42.927Z,8.90
2019-01-08T05:04:11.884Z,8.80
2019-01-08T05:06:40.858Z,8.90
2019-01-08T05:09:09.814Z,9.00
2019-01-08T05:11:38.791Z,8.70
2019-01-08T05:14:07.762Z,8.80
2019-01-08T05:16:36.742Z,9.00
2019-01-08T05:19:05.709Z,9.00
2019-01-08T05:21:34.691Z,9.00
2019-01-08T05:24:03.663Z,9.00
2019-01-08T05:26:32.623Z,8.90
2019-01-08T05:29:01.602Z,8.90
2019-01-08T05:31:30.567Z,8.80
2019-01-08T05:33:59.547Z,9.00
2019-01-08T05:36:28.497Z,8.70
2019-01-08T05:38:57.477Z,8.90
2019-01-08T05:41:26.454Z,8.70
2019-01-08T05:43:55.431Z,8.70
2019-01-08T05:46:24.391Z,8.60
2019-01-08T05:48:53.363Z,8.90
2019-01-08T05:51:22.331Z,8.50
2019-01-08T05:53:51.309Z,8.90
2019-01-08T05:56:20.271Z,9.00
2019-01-08T05:58:49.238Z,9.00
2019-01-08T06:01:18.198Z,9.00
2019-01-08T06:03:47.192Z,8.80
2019-01-08T06:06:16.143Z,8.90
2019-01-08T06:08:45.122Z,9.00
2019-01-08T06:11:14.090Z,8.90
2019-01-08T06:13:43.075Z,9.10
2019-01-08T06:16:12.030Z,9.00
2019-01-08T06:18:41.007Z,9.10
2019-01-08T06:21:09.979Z,9.10
2019-01-08T06:23:38.952Z,8.70
2019-01-08T06:26:07.903Z,8.80
2019-01-08T06:28:36.879Z,8.60
2019-01-08T06:31:05.847Z,8.70
2019-01-08T06:33:34.843Z,8.60
2019-01-08T06:36:03.810Z,8.70
2019-01-08T06:38:32.790Z,8.80
2019-01-08T06:41:01.755Z,8.90
2019-01-08T06:43:30.726Z,8.90
2019-01-08T06:45:59.687Z,8.80
2019-01-08T06:48:28.665Z,8.70
2019-01-08T06:50:57.627Z,8.70
2019-01-08T06:53:26.606Z,8.70
2019-01-08T06:55:55.575Z,8.70
2019-01-08T06:58:24.547Z,8.60
2019-01-08T07:00:53.503Z,8.70
2019-01-08T07:03:22.488Z,8.70
2019-01-08T07:05:51.443Z,8.40
2019-01-08T07:08:20.428Z,8.40
2019-01-08T07:10:49.389Z,8.30
2019-01-08T07:13:18.368Z,8.50
2019-01-08T07:15:47.329Z,8.30
2019-01-08T07:18:16.310Z,8.50
2019-01-08T07:20:45.283Z,8.80
2019-01-08T07:23:14.254Z,8.80
2019-01-08T07:25:43.208Z,8.20
2019-01-08T07:28:12.190Z,8.00
2019-01-08T07:30:41.706Z,8.20
2019-01-08T07:33:10.904Z,8.40
2019-01-08T07:35:39.897Z,8.20
2019-01-08T07:38:08.865Z,8.20
2019-01-08T07:40:37.838Z,8.30
2019-01-08T07:43:06.801Z,8.40
2019-01-08T07:45:35.771Z,8.40
2019-01-08T07:48:04.746Z,8.30
2019-01-08T07:50:33.726Z,8.30
2019-01-08T07:53:02.675Z,8.50
2019-01-08T07:55:31.664Z,8.20
2019-01-08T07:58:00.642Z,8.00
2019-01-08T08:00:29.685Z,8.50
2019-01-08T08:02:58.660Z,8.50
2019-01-08T08:05:27.647Z,8.20
2019-01-08T08:07:56.606Z,8.30
2019-01-08T08:10:25.587Z,8.00
2019-01-08T08:12:54.543Z,8.20
2019-01-08T08:15:23.548Z,8.30
2019-01-08T08:17:52.884Z,8.10
2019-01-08T08:20:21.863Z,8.30
2019-01-08T08:22:50.828Z,8.40
2019-01-08T08:25:19.908Z,8.40
2019-01-08T08:27:48.876Z,8.40
2019-01-08T08:30:17.846Z,7.80
2019-01-08T08:32:46.822Z,8.30
2019-01-08T08:35:15.799Z,8.20
2019-01-08T08:37:44.774Z,8.30
2019-01-08T08:40:13.738Z,8.50
2019-01-08T08:42:42.699Z,8.40
2019-01-08T08:45:11.685Z,8.00
2019-01-08T08:47:40.640Z,8.30
2019-01-08T08:50:09.674Z,8.20
2019-01-08T08:52:38.625Z,8.60
2019-01-08T08:55:07.688Z,8.70
2019-01-08T08:57:36.655Z,8.60
2019-01-08T09:00:07.975Z,8.60
2019-01-08T09:02:36.944Z,8.60
2019-01-08T09:05:06.066Z,8.40
2019-01-08T09:07:35.027Z,8.00
2019-01-08T09:10:04.775Z,8.00
2019-01-08T09:12:33.766Z,8.10
2019-01-08T09:15:02.728Z,8.10
2019-01-08T09:17:31.675Z,8.20
2019-01-08T09:20:00.651Z,7.80
2019-01-08T09:22:29.620Z,7.80
2019-01-08T09:24:58.602Z,7.90
2019-01-08T09:27:27.588Z,7.80
2019-01-08T09:29:56.572Z,8.10
2019-01-08T09:32:25.541Z,8.10
2019-01-08T09:34:54.515Z,8.10
2019-01-08T09:37:23.495Z,7.80
2019-01-08T09:39:52.466Z,8.10
2019-01-08T09:42:21.439Z,8.20
2019-01-08T09:44:50.399Z,8.20
2019-01-08T09:47:19.365Z,8.00
2019-01-08T09:49:48.320Z,7.90
2019-01-08T09:52:17.296Z,8.20
2019-01-08T09:54:46.258Z,7.60
2019-01-08T09:57:15.240Z,7.80
2019-01-08T09:59:44.202Z,8.00
2019-01-08T10:02:13.184Z,7.90
2019-01-08T10:04:42.153Z,7.90
2019-01-08T10:07:11.131Z,7.70
2019-01-08T10:09:40.099Z,7.80
2019-01-08T10:12:09.082Z,7.80
2019-01-08T10:14:38.038Z,7.90
2019-01-08T10:17:07.024Z,7.60
2019-01-08T10:19:35.975Z,7.50
2019-01-08T10:22:04.964Z,7.60
2019-01-08T10:24:33.919Z,7.50
2019-01-08T10:27:02.899Z,7.60
2019-01-08T10:29:31.868Z,8.00
2019-01-08T10:32:00.850Z,7.80
2019-01-08T10:34:29.816Z,7.70
2019-01-08T10:36:58.794Z,8.10
2019-01-08T10:39:27.756Z,8.00
2019-01-08T10:41:56.746Z,8.20
2019-01-08T10:44:25.713Z,8.20
2019-01-08T10:46:54.682Z,7.90
2019-01-08T10:49:23.668Z,8.00
2019-01-08T10:51:52.668Z,8.20
2019-01-08T10:54:21.627Z,8.30
2019-01-08T10:56:50.606Z,8.30
2019-01-08T10:59:19.579Z,8.40
2019-01-08T11:01:48.568Z,8.40
2019-01-08T11:04:17.527Z,8.20
2019-01-08T11:06:46.591Z,8.60
2019-01-08T11:09:15.618Z,8.30
2019-01-08T11:11:44.609Z,8.50
2019-01-08T11:14:13.580Z,8.40
2019-01-08T11:16:42.552Z,8.40
2019-01-08T11:19:11.588Z,8.40
2019-01-08T11:21:40.578Z,8.50
2019-01-08T11:24:09.529Z,8.50
2019-01-08T11:26:38.511Z,8.40
2019-01-08T11:29:07.473Z,8.50
2019-01-08T11:31:36.460Z,8.60
2019-01-08T11:34:05.428Z,8.00
2019-01-08T11:36:34.397Z,8.30
2019-01-08T11:39:04.424Z,8.50
2019-01-08T11:41:33.415Z,8.40
2019-01-08T11:44:02.370Z,8.30
2019-01-08T11:46:31.328Z,7.80
2019-01-08T11:49:00.298Z,8.30
2019-01-08T11:51:29.264Z,8.40
2019-01-08T11:53:58.238Z,8.10
2019-01-08T11:56:27.200Z,8.00
2019-01-08T11:58:56.200Z,8.30
2019-01-08T12:01:25.166Z,8.00
2019-01-08T12:03:54.215Z,8.10
2019-01-08T12:06:23.178Z,8.00
2019-01-08T12:08:52.163Z,8.30
2019-01-08T12:11:21.139Z,8.20
2019-01-08T12:13:50.133Z,8.10
2019-01-08T12:16:19.158Z,8.40
2019-01-08T12:18:48.144Z,8.30
2019-01-08T12:21:17.114Z,8.30
2019-01-08T12:23:46.084Z,8.40
2019-01-08T12:26:15.054Z,8.20
2019-01-08T12:28:44.042Z,8.20
2019-01-08T12:31:13.073Z,8.40
2019-01-08T12:33:42.069Z,8.50
2019-01-08T12:36:11.028Z,8.20
2019-01-08T12:38:40.021Z,8.40
2019-01-08T12:41:08.988Z,8.10
2019-01-08T12:43:37.995Z,8.30
2019-01-08T12:46:06.957Z,8.40
2019-01-08T12:48:35.925Z,8.60
2019-01-08T12:51:04.903Z,8.60
2019-01-08T12:53:33.886Z,8.10
2019-01-08T12:56:02.860Z,8.60
2019-01-08T12:58:31.832Z,8.50
2019-01-08T13:01:00.793Z,8.50
2019-01-08T13:03:29.775Z,8.40
2019-01-08T13:05:58.753Z,8.40
2019-01-08T13:08:27.730Z,8.40
2019-01-08T13:10:56.694Z,8.40
2019-01-08T13:13:27.390Z,8.60
2019-01-08T13:15:56.357Z,8.10
2019-01-08T13:18:25.350Z,8.20
2019-01-08T13:20:54.310Z,8.00
2019-01-08T13:23:23.346Z,8.30
2019-01-08T13:25:52.307Z,8.30
2019-01-08T13:28:23.386Z,8.50
2019-01-08T13:30:51.943Z,8.30
2019-01-08T13:33:20.925Z,8.30
2019-01-08T13:35:49.902Z,8.50
2019-01-08T13:38:18.870Z,8.50
2019-01-08T13:40:47.822Z,8.50
2019-01-08T13:43:16.804Z,8.50
2019-01-08T13:45:45.775Z,8.50
2019-01-08T13:48:14.762Z,8.50
2019-01-08T13:50:43.726Z,8.40
2019-01-08T13:53:12.814Z,8.50
2019-01-08T13:55:41.789Z,8.40
2019-01-08T13:58:10.787Z,8.30
2019-01-08T14:00:39.775Z,8.50
2019-01-08T14:03:08.779Z,8.40
2019-01-08T14:05:37.750Z,8.70
2019-01-08T14:08:06.714Z,8.60
2019-01-08T14:10:35.698Z,8.70
2019-01-08T14:13:04.671Z,8.70
2019-01-08T14:15:33.631Z,8.70
2019-01-08T14:18:02.676Z,8.80
2019-01-08T14:20:31.634Z,8.70
2019-01-08T14:23:00.639Z,8.70
2019-01-08T14:25:29.595Z,8.60
2019-01-08T14:27:58.644Z,8.70
2019-01-08T14:30:27.603Z,8.40
2019-01-08T14:32:56.575Z,8.20
2019-01-08T14:35:25.542Z,8.00
2019-01-08T14:37:54.533Z,7.60
2019-01-08T14:40:23.502Z,7.80
2019-01-08T14:42:52.634Z,7.70
2019-01-08T14:45:21.590Z,7.80
2019-01-08T14:47:51.509Z,7.80
2019-01-08T14:50:20.458Z,7.40
2019-01-08T14:52:49.446Z,7.50
2019-01-08T14:55:18.423Z,7.70
2019-01-08T14:57:47.396Z,7.10
2019-01-08T15:00:16.351Z,7.60
2019-01-08T15:02:49.633Z,7.70
2019-01-08T15:05:16.014Z,7.70
2019-01-08T15:07:45.072Z,7.70
2019-01-08T15:10:14.074Z,7.90
2019-01-08T15:12:43.100Z,7.40
2019-01-08T15:15:12.922Z,7.80
2019-01-08T15:17:42.027Z,7.70
2019-01-08T15:20:10.999Z,7.80
2019-01-08T15:22:39.962Z,7.80
2019-01-08T15:25:09.062Z,7.80
2019-01-08T15:27:38.010Z,7.80
2019-01-08T15:30:09.537Z,7.90
2019-01-08T15:32:38.491Z,7.70
2019-01-08T15:35:07.627Z,7.80
2019-01-08T15:37:36.624Z,7.90
2019-01-08T15:40:06.359Z,7.60
2019-01-08T15:42:35.324Z,7.50
2019-01-08T15:45:04.567Z,7.80
2019-01-08T15:47:33.536Z,7.80
2019-01-08T15:50:02.506Z,7.80
2019-01-08T15:52:31.462Z,7.80
2019-01-08T15:55:00.447Z,7.70
2019-01-08T15:57:29.486Z,7.70
2019-01-08T15:59:58.459Z,7.90
2019-01-08T16:02:27.412Z,7.60
2019-01-08T16:04:56.386Z,7.60
2019-01-08T16:07:25.357Z,7.90
2019-01-08T16:09:54.359Z,7.90
2019-01-08T16:12:23.436Z,7.80
2019-01-08T16:14:52.405Z,7.80
2019-01-08T16:17:21.402Z,7.90
2019-01-08T16:19:50.363Z,7.90
2019-01-08T16:22:19.353Z,7.90
2019-01-08T16:24:48.302Z,7.90
2019-01-08T16:27:17.295Z,7.70
2019-01-08T16:29:46.260Z,7.90
2019-01-08T16:32:15.254Z,7.90
2019-01-08T16:34:44.218Z,8.10
2019-01-08T16:37:13.200Z,7.90
2019-01-08T16:39:42.166Z,8.00
2019-01-08T16:42:11.155Z,7.90
2019-01-08T16:44:40.110Z,7.30
2019-01-08T16:47:09.095Z,7.80
2019-01-08T16:49:38.080Z,7.50
2019-01-08T16:52:07.067Z,7.70
2019-01-08T16:54:36.028Z,7.80
2019-01-08T16:57:05.004Z,7.80
2019-01-08T16:59:33.992Z,7.80
2019-01-08T17:02:03.041Z,7.40
2019-01-08T17:04:31.994Z,7.70
2019-01-08T17:07:01.063Z,7.50
2019-01-08T17:09:30.275Z,7.70
2019-01-08T17:11:59.259Z,7.70
2019-01-08T17:14:28.234Z,7.60
2019-01-08T17:16:57.203Z,7.50
2019-01-08T17:19:26.175Z,7.40
2019-01-08T17:21:55.165Z,7.00
2019-01-08T17:24:24.129Z,7.30
2019-01-08T17:26:53.116Z,7.40
2019-01-08T17:29:22.066Z,7.30
2019-01-08T17:31:51.114Z,7.30
2019-01-08T17:34:20.163Z,7.20
2019-01-08T17:36:49.151Z,7.50
2019-01-08T17:39:18.130Z,7.50
2019-01-08T17:41:47.132Z,7.40
2019-01-08T17:44:16.117Z,7.40
2019-01-08T17:46:45.176Z,7.40
2019-01-08T17:49:14.123Z,7.30
2019-01-08T17:51:43.128Z,7.30
2019-01-08T17:54:12.104Z,7.50
2019-01-08T17:56:41.108Z,7.50
2019-01-08T17:59:11.067Z,7.60
2019-01-08T18:01:43.398Z,7.70
2019-01-08T18:04:12.375Z,7.50
2019-01-08T18:06:41.359Z,7.10
2019-01-08T18:09:10.357Z,7.60
2019-01-08T18:11:39.415Z,7.30
2019-01-08T18:14:08.395Z,7.60
2019-01-08T18:16:37.369Z,7.80
2019-01-08T18:19:06.426Z,7.70
2019-01-08T18:21:35.403Z,7.80
2019-01-08T18:24:04.462Z,7.70
2019-01-08T18:26:34.358Z,7.70
2019-01-08T18:29:03.679Z,7.70
2019-01-08T18:31:32.720Z,7.70
2019-01-08T18:34:01.702Z,7.70
2019-01-08T18:36:30.680Z,7.70
2019-01-08T18:38:59.666Z,7.70
2019-01-08T18:41:28.631Z,7.60
2019-01-08T18:43:57.632Z,7.60
2019-01-08T18:46:26.598Z,7.30
2019-01-08T18:48:55.669Z,7.70
2019-01-08T18:51:24.633Z,7.70
2019-01-08T18:53:53.608Z,7.90
2019-01-08T18:56:22.671Z,7.80
2019-01-08T18:58:51.666Z,7.80
2019-01-08T19:01:20.694Z,7.80
2019-01-08T19:03:49.699Z,7.60
2019-01-08T19:06:18.654Z,7.80
2019-01-08T19:09:24.041Z,7.50
2019-01-08T19:11:53.466Z,7.60
2019-01-08T19:14:25.629Z,7.60
2019-01-08T19:16:54.655Z,7.60
2019-01-08T19:19:23.633Z,7.60
2019-01-08T19:21:52.655Z,7.60
2019-01-08T19:24:21.638Z,7.50
2019-01-08T19:26:50.596Z,7.50
2019-01-08T19:29:19.599Z,7.60
2019-01-08T19:31:48.581Z,7.50
2019-01-08T19:34:17.628Z,7.50
2019-01-08T19:36:46.649Z,7.60
2019-01-08T19:39:15.687Z,7.60
2019-01-08T19:41:44.655Z,7.70
2019-01-08T19:44:13.638Z,7.60
2019-01-08T19:46:42.618Z,7.70
2019-01-08T19:49:11.658Z,7.60
2019-01-08T19:51:40.627Z,7.60
2019-01-08T19:54:09.626Z,7.50
2019-01-08T19:56:38.586Z,7.30
2019-01-08T19:59:07.598Z,7.50
2019-01-08T20:01:36.558Z,7.50
2019-01-08T20:04:05.531Z,7.30
2019-01-08T20:06:34.511Z,7.30
2019-01-08T20:09:05.095Z,7.20
2019-01-08T20:11:34.527Z,7.10
2019-01-08T20:14:03.502Z,6.90
2019-01-08T20:16:32.546Z,6.90
2019-01-08T20:19:01.538Z,7.00
2019-01-08T20:21:30.580Z,6.70
2019-01-08T20:24:06.230Z,6.70
2019-01-08T20:26:30.555Z,6.50
2019-01-08T20:28:59.548Z,6.50
2019-01-08T20:31:28.574Z,6.50
2019-01-08T20:33:57.560Z,6.60
2019-01-08T20:36:26.536Z,6.50
2019-01-08T20:38:55.517Z,6.50
2019-01-08T20:41:24.503Z,6.70
2019-01-08T20:43:53.490Z,6.70
2019-01-08T20:46:22.475Z,6.80
2019-01-08T20:48:51.691Z,6.70
2019-01-08T20:51:20.677Z,6.80
2019-01-08T20:53:49.654Z,6.80
2019-01-08T20:56:18.623Z,6.80
2019-01-08T20:58:47.596Z,6.70
2019-01-08T21:01:16.554Z,6.90
2019-01-08T21:03:45.559Z,7.00
2019-01-08T21:06:14.499Z,7.10
2019-01-08T21:08:43.468Z,7.00
2019-01-08T21:11:12.444Z,7.00
2019-01-08T21:13:41.427Z,7.00
2019-01-08T21:16:10.412Z,6.80
2019-01-08T21:18:39.418Z,6.90
2019-01-08T21:21:08.483Z,6.70
2019-01-08T21:23:37.601Z,6.70
2019-01-08T21:26:06.574Z,6.90
2019-01-08T21:28:35.541Z,6.70
2019-01-08T21:31:04.662Z,6.70
2019-01-08T21:33:33.645Z,6.70
2019-01-08T21:36:02.625Z,6.60
2019-01-08T21:38:31.587Z,6.60
2019-01-08T21:41:00.580Z,6.70
2019-01-08T21:43:29.579Z,6.60
2019-01-08T21:45:58.550Z,6.60
2019-01-08T21:48:27.514Z,6.50
2019-01-08T21:50:56.967Z,6.40
2019-01-08T21:53:25.950Z,6.60
2019-01-08T21:55:54.935Z,6.60
2019-01-08T21:58:23.981Z,6.50
2019-01-08T22:00:53.019Z,6.70
2019-01-08T22:03:22.431Z,6.20
2019-01-08T22:05:51.406Z,6.50
2019-01-08T22:08:20.439Z,6.70
2019-01-08T22:10:49.418Z,6.60
2019-01-08T22:13:18.383Z,6.70
2019-01-08T22:15:47.374Z,6.60
2019-01-08T22:18:16.358Z,6.50
2019-01-08T22:20:45.403Z,6.50
2019-01-08T22:23:14.386Z,6.40
2019-01-08T22:25:43.363Z,6.60
2019-01-08T22:28:12.556Z,6.60
2019-01-08T22:30:41.518Z,6.50
2019-01-08T22:33:10.831Z,6.60
2019-01-08T22:35:39.890Z,6.50
2019-01-08T22:38:08.919Z,6.60
2019-01-08T22:40:37.921Z,6.40
2019-01-08T22:43:06.877Z,6.50
2019-01-08T22:45:35.934Z,6.50
2019-01-08T22:48:04.956Z,6.50
2019-01-08T22:50:33.931Z,6.70
2019-01-08T22:53:02.913Z,6.70
2019-01-08T22:55:31.953Z,6.50
2019-01-08T22:58:02.032Z,6.40
2019-01-08T23:00:36.472Z,6.60
2019-01-08T23:03:05.494Z,6.70
2019-01-08T23:05:34.531Z,6.60
2019-01-08T23:08:03.646Z,6.60
2019-01-08T23:10:32.711Z,6.50
2019-01-08T23:13:01.807Z,6.50
2019-01-08T23:15:30.834Z,6.20
2019-01-08T23:17:59.795Z,6.40
2019-01-08T23:20:28.932Z,6.50
2019-01-08T23:22:57.982Z,6.40
2019-01-08T23:25:26.965Z,6.30
2019-01-08T23:27:55.943Z,6.30
2019-01-08T23:30:24.911Z,6.40
2019-01-08T23:32:53.879Z,6.30
2019-01-08T23:35:22.862Z,6.30
2019-01-08T23:37:51.890Z,6.40
2019-01-08T23:40:20.950Z,6.40
2019-01-08T23:42:50.044Z,6.20
2019-01-08T23:45:19.168Z,6.50
2019-01-08T23:47:48.122Z,6.60
2019-01-08T23:50:17.226Z,6.80
2019-01-08T23:52:54.979Z,6.80
2019-01-08T23:55:24.203Z,6.60
2019-01-08T23:57:53.230Z,6.20
